sensor_id;sensor_type;location;lat;lon;timestamp;temperature;humidity
17236;DHT22;8734;59.272;17.780;2023-03-23T00:02:24;6.60;99.90
17236;DHT22;8734;59.272;17.780;2023-03-23T00:04:51;6.50;99.90
17236;DHT22;8734;59.272;17.780;2023-03-23T00:07:19;6.50;99.90
17236;DHT22;8734;59.272;17.780;2023-03-23T00:09:47;6.50;99.90
17236;DHT22;8734;59.272;17.780;2023-03-23T00:12:19;6.40;99.90
17236;DHT22;8734;59.272;17.780;2023-03-23T00:14:47;6.50;99.90
17236;DHT22;8734;59.272;17.780;2023-03-23T00:17:19;6.60;99.90
17236;DHT22;8734;59.272;17.780;2023-03-23T00:19:48;6.60;99.90
17236;DHT22;8734;59.272;17.780;2023-03-23T00:22:16;6.60;99.90
17236;DHT22;8734;59.272;17.780;2023-03-23T00:24:47;6.60;99.90
17236;DHT22;8734;59.272;17.780;2023-03-23T00:27:16;6.60;99.90
17236;DHT22;8734;59.272;17.780;2023-03-23T00:29:43;6.60;99.90
17236;DHT22;8734;59.272;17.780;2023-03-23T00:32:12;6.60;99.90
17236;DHT22;8734;59.272;17.780;2023-03-23T00:34:40;6.60;99.90
17236;DHT22;8734;59.272;17.780;2023-03-23T00:37:10;6.60;99.90
17236;DHT22;8734;59.272;17.780;2023-03-23T00:39:38;6.60;99.90
17236;DHT22;8734;59.272;17.780;2023-03-23T00:42:13;6.60;99.90
17236;DHT22;8734;59.272;17.780;2023-03-23T00:44:41;6.50;99.90
17236;DHT22;8734;59.272;17.780;2023-03-23T00:47:09;6.60;99.90
17236;DHT22;8734;59.272;17.780;2023-03-23T00:49:37;6.50;99.90
17236;DHT22;8734;59.272;17.780;2023-03-23T00:52:07;6.50;99.90
17236;DHT22;8734;59.272;17.780;2023-03-23T00:54:35;6.50;99.90
17236;DHT22;8734;59.272;17.780;2023-03-23T00:57:05;6.50;99.90
17236;DHT22;8734;59.272;17.780;2023-03-23T00:59:32;6.40;99.90
17236;DHT22;8734;59.272;17.780;2023-03-23T01:01:59;6.40;99.90
17236;DHT22;8734;59.272;17.780;2023-03-23T01:04:26;6.40;99.90
17236;DHT22;8734;59.272;17.780;2023-03-23T01:06:57;6.30;99.90
17236;DHT22;8734;59.272;17.780;2023-03-23T01:09:26;6.30;99.90
17236;DHT22;8734;59.272;17.780;2023-03-23T01:11:55;6.30;99.90
17236;DHT22;8734;59.272;17.780;2023-03-23T01:14:22;6.20;99.90
17236;DHT22;8734;59.272;17.780;2023-03-23T01:16:51;6.20;99.90
17236;DHT22;8734;59.272;17.780;2023-03-23T01:19:18;6.10;99.90
17236;DHT22;8734;59.272;17.780;2023-03-23T01:21:46;6.00;99.90
17236;DHT22;8734;59.272;17.780;2023-03-23T01:24:13;5.90;99.90
17236;DHT22;8734;59.272;17.780;2023-03-23T01:26:40;5.90;99.90
17236;DHT22;8734;59.272;17.780;2023-03-23T01:29:09;5.90;99.90
17236;DHT22;8734;59.272;17.780;2023-03-23T01:31:36;5.90;99.90
17236;DHT22;8734;59.272;17.780;2023-03-23T01:34:05;5.80;99.90
17236;DHT22;8734;59.272;17.780;2023-03-23T01:36:32;5.80;99.90
17236;DHT22;8734;59.272;17.780;2023-03-23T01:39:00;5.70;99.90
17236;DHT22;8734;59.272;17.780;2023-03-23T01:41:31;5.70;99.90
17236;DHT22;8734;59.272;17.780;2023-03-23T01:44:00;5.70;99.90
17236;DHT22;8734;59.272;17.780;2023-03-23T01:46:31;5.70;99.90
17236;DHT22;8734;59.272;17.780;2023-03-23T01:49:02;5.70;99.90
17236;DHT22;8734;59.272;17.780;2023-03-23T01:51:33;5.60;99.90
17236;DHT22;8734;59.272;17.780;2023-03-23T01:54:04;5.60;99.90
17236;DHT22;8734;59.272;17.780;2023-03-23T01:56:36;5.70;99.90
17236;DHT22;8734;59.272;17.780;2023-03-23T01:59:07;5.60;99.90
17236;DHT22;8734;59.272;17.780;2023-03-23T02:01:36;5.60;99.90
17236;DHT22;8734;59.272;17.780;2023-03-23T02:04:09;5.50;99.90
17236;DHT22;8734;59.272;17.780;2023-03-23T02:06:36;5.50;99.90
17236;DHT22;8734;59.272;17.780;2023-03-23T02:09:04;5.50;99.90
17236;DHT22;8734;59.272;17.780;2023-03-23T02:11:32;5.50;99.90
17236;DHT22;8734;59.272;17.780;2023-03-23T02:14:01;5.40;99.90
17236;DHT22;8734;59.272;17.780;2023-03-23T02:16:34;5.40;99.90
17236;DHT22;8734;59.272;17.780;2023-03-23T02:22:18;5.30;99.90
17236;DHT22;8734;59.272;17.780;2023-03-23T02:24:57;5.30;99.90
17236;DHT22;8734;59.272;17.780;2023-03-23T02:30:37;5.30;99.90
17236;DHT22;8734;59.272;17.780;2023-03-23T02:36:11;5.30;99.90
17236;DHT22;8734;59.272;17.780;2023-03-23T02:38:44;5.20;99.90
17236;DHT22;8734;59.272;17.780;2023-03-23T02:41:19;5.20;99.90
17236;DHT22;8734;59.272;17.780;2023-03-23T02:43:48;5.10;99.90
17236;DHT22;8734;59.272;17.780;2023-03-23T02:46:16;5.10;99.90
17236;DHT22;8734;59.272;17.780;2023-03-23T02:48:46;5.00;99.90
17236;DHT22;8734;59.272;17.780;2023-03-23T02:51:18;5.00;99.90
17236;DHT22;8734;59.272;17.780;2023-03-23T02:53:47;5.00;99.90
17236;DHT22;8734;59.272;17.780;2023-03-23T02:56:16;5.10;99.90
17236;DHT22;8734;59.272;17.780;2023-03-23T02:58:44;5.10;99.90
17236;DHT22;8734;59.272;17.780;2023-03-23T03:04:03;5.10;99.90
17236;DHT22;8734;59.272;17.780;2023-03-23T03:06:37;5.30;99.90
17236;DHT22;8734;59.272;17.780;2023-03-23T03:09:10;5.30;99.90
17236;DHT22;8734;59.272;17.780;2023-03-23T03:11:45;5.30;99.90
17236;DHT22;8734;59.272;17.780;2023-03-23T03:14:19;5.30;99.90
17236;DHT22;8734;59.272;17.780;2023-03-23T03:16:53;5.10;99.90
17236;DHT22;8734;59.272;17.780;2023-03-23T03:19:27;5.10;99.90
17236;DHT22;8734;59.272;17.780;2023-03-23T03:21:58;5.10;99.90
17236;DHT22;8734;59.272;17.780;2023-03-23T03:24:28;5.10;99.90
17236;DHT22;8734;59.272;17.780;2023-03-23T03:26:58;5.10;99.90
17236;DHT22;8734;59.272;17.780;2023-03-23T03:29:28;5.00;99.90
17236;DHT22;8734;59.272;17.780;2023-03-23T03:31:58;5.00;99.90
17236;DHT22;8734;59.272;17.780;2023-03-23T03:34:27;5.00;99.90
17236;DHT22;8734;59.272;17.780;2023-03-23T03:36:59;5.00;99.90
17236;DHT22;8734;59.272;17.780;2023-03-23T03:39:27;5.00;99.90
17236;DHT22;8734;59.272;17.780;2023-03-23T03:41:54;5.00;99.90
17236;DHT22;8734;59.272;17.780;2023-03-23T03:44:22;5.00;99.90
17236;DHT22;8734;59.272;17.780;2023-03-23T03:46:49;4.90;99.90
17236;DHT22;8734;59.272;17.780;2023-03-23T03:49:16;4.90;99.90
17236;DHT22;8734;59.272;17.780;2023-03-23T03:51:45;4.90;99.90
17236;DHT22;8734;59.272;17.780;2023-03-23T03:54:12;4.90;99.90
17236;DHT22;8734;59.272;17.780;2023-03-23T03:56:40;5.00;99.90
17236;DHT22;8734;59.272;17.780;2023-03-23T03:59:07;4.90;99.90
17236;DHT22;8734;59.272;17.780;2023-03-23T04:01:36;4.90;99.90
17236;DHT22;8734;59.272;17.780;2023-03-23T04:04:04;4.90;99.90
17236;DHT22;8734;59.272;17.780;2023-03-23T04:06:33;4.90;99.90
17236;DHT22;8734;59.272;17.780;2023-03-23T04:09:05;4.90;99.90
17236;DHT22;8734;59.272;17.780;2023-03-23T04:11:33;4.90;99.90
17236;DHT22;8734;59.272;17.780;2023-03-23T04:14:00;4.80;99.90
17236;DHT22;8734;59.272;17.780;2023-03-23T04:16:28;4.70;99.90
17236;DHT22;8734;59.272;17.780;2023-03-23T04:18:56;4.70;99.90
17236;DHT22;8734;59.272;17.780;2023-03-23T04:21:24;4.70;99.90
17236;DHT22;8734;59.272;17.780;2023-03-23T04:23:54;4.60;99.90
17236;DHT22;8734;59.272;17.780;2023-03-23T04:26:26;4.60;99.90
17236;DHT22;8734;59.272;17.780;2023-03-23T04:28:54;4.70;99.90
17236;DHT22;8734;59.272;17.780;2023-03-23T04:31:22;4.70;99.90
17236;DHT22;8734;59.272;17.780;2023-03-23T04:33:50;4.70;99.90
17236;DHT22;8734;59.272;17.780;2023-03-23T04:36:19;4.70;99.90
17236;DHT22;8734;59.272;17.780;2023-03-23T04:38:48;4.70;99.90
17236;DHT22;8734;59.272;17.780;2023-03-23T04:41:21;4.70;99.90
17236;DHT22;8734;59.272;17.780;2023-03-23T04:43:49;4.70;99.90
17236;DHT22;8734;59.272;17.780;2023-03-23T04:46:18;4.60;99.90
17236;DHT22;8734;59.272;17.780;2023-03-23T04:48:47;4.60;99.90
17236;DHT22;8734;59.272;17.780;2023-03-23T04:51:15;4.60;99.90
17236;DHT22;8734;59.272;17.780;2023-03-23T04:53:42;4.70;99.90
17236;DHT22;8734;59.272;17.780;2023-03-23T04:56:10;4.70;99.90
17236;DHT22;8734;59.272;17.780;2023-03-23T04:58:39;4.70;99.90
17236;DHT22;8734;59.272;17.780;2023-03-23T05:01:08;4.60;99.90
17236;DHT22;8734;59.272;17.780;2023-03-23T05:03:35;4.50;99.90
17236;DHT22;8734;59.272;17.780;2023-03-23T05:06:02;4.50;99.90
17236;DHT22;8734;59.272;17.780;2023-03-23T05:08:29;4.60;99.90
17236;DHT22;8734;59.272;17.780;2023-03-23T05:10:59;4.50;99.90
17236;DHT22;8734;59.272;17.780;2023-03-23T05:13:27;4.60;99.90
17236;DHT22;8734;59.272;17.780;2023-03-23T05:15:55;4.50;99.90
17236;DHT22;8734;59.272;17.780;2023-03-23T05:18:24;4.50;99.90
17236;DHT22;8734;59.272;17.780;2023-03-23T05:20:51;4.50;99.90
17236;DHT22;8734;59.272;17.780;2023-03-23T05:23:19;4.60;99.90
17236;DHT22;8734;59.272;17.780;2023-03-23T05:25:54;4.60;99.90
17236;DHT22;8734;59.272;17.780;2023-03-23T05:28:22;4.60;99.90
17236;DHT22;8734;59.272;17.780;2023-03-23T05:30:49;4.70;99.90
17236;DHT22;8734;59.272;17.780;2023-03-23T05:33:17;4.60;99.90
17236;DHT22;8734;59.272;17.780;2023-03-23T05:35:47;4.60;99.90
17236;DHT22;8734;59.272;17.780;2023-03-23T05:38:14;4.70;99.90
17236;DHT22;8734;59.272;17.780;2023-03-23T05:40:42;4.70;99.90
17236;DHT22;8734;59.272;17.780;2023-03-23T05:43:10;4.70;99.90
17236;DHT22;8734;59.272;17.780;2023-03-23T05:45:37;4.80;99.90
17236;DHT22;8734;59.272;17.780;2023-03-23T05:48:06;4.80;99.90
17236;DHT22;8734;59.272;17.780;2023-03-23T05:50:33;4.80;99.90
17236;DHT22;8734;59.272;17.780;2023-03-23T05:53:01;4.90;99.90
17236;DHT22;8734;59.272;17.780;2023-03-23T05:55:30;5.00;99.90
17236;DHT22;8734;59.272;17.780;2023-03-23T05:57:58;5.00;99.90
17236;DHT22;8734;59.272;17.780;2023-03-23T06:00:25;4.90;99.90
17236;DHT22;8734;59.272;17.780;2023-03-23T06:02:56;5.00;99.90
17236;DHT22;8734;59.272;17.780;2023-03-23T06:05:24;5.10;99.90
17236;DHT22;8734;59.272;17.780;2023-03-23T06:07:51;5.10;99.90
17236;DHT22;8734;59.272;17.780;2023-03-23T06:10:21;5.10;99.90
17236;DHT22;8734;59.272;17.780;2023-03-23T06:12:49;5.10;99.90
17236;DHT22;8734;59.272;17.780;2023-03-23T06:15:18;5.20;99.90
17236;DHT22;8734;59.272;17.780;2023-03-23T06:17:45;5.30;99.90
17236;DHT22;8734;59.272;17.780;2023-03-23T06:20:13;5.30;99.90
17236;DHT22;8734;59.272;17.780;2023-03-23T06:22:40;5.30;99.90
17236;DHT22;8734;59.272;17.780;2023-03-23T06:25:09;5.40;99.90
17236;DHT22;8734;59.272;17.780;2023-03-23T06:27:40;5.40;99.90
17236;DHT22;8734;59.272;17.780;2023-03-23T06:30:08;5.30;99.90
17236;DHT22;8734;59.272;17.780;2023-03-23T06:32:37;5.40;99.90
17236;DHT22;8734;59.272;17.780;2023-03-23T06:35:05;5.40;99.90
17236;DHT22;8734;59.272;17.780;2023-03-23T06:37:35;5.40;99.90
17236;DHT22;8734;59.272;17.780;2023-03-23T06:40:03;5.40;99.90
17236;DHT22;8734;59.272;17.780;2023-03-23T06:42:33;5.50;99.90
17236;DHT22;8734;59.272;17.780;2023-03-23T06:45:01;5.50;99.90
17236;DHT22;8734;59.272;17.780;2023-03-23T06:47:30;5.60;99.90
17236;DHT22;8734;59.272;17.780;2023-03-23T06:49:57;5.60;99.90
17236;DHT22;8734;59.272;17.780;2023-03-23T06:52:25;5.60;99.90
17236;DHT22;8734;59.272;17.780;2023-03-23T06:54:53;5.70;99.90
17236;DHT22;8734;59.272;17.780;2023-03-23T06:57:20;5.80;99.90
17236;DHT22;8734;59.272;17.780;2023-03-23T06:59:47;5.80;99.90
17236;DHT22;8734;59.272;17.780;2023-03-23T07:02:16;5.90;99.90
17236;DHT22;8734;59.272;17.780;2023-03-23T07:04:44;5.90;99.90
17236;DHT22;8734;59.272;17.780;2023-03-23T07:07:11;6.00;99.90
17236;DHT22;8734;59.272;17.780;2023-03-23T07:09:40;6.00;99.90
17236;DHT22;8734;59.272;17.780;2023-03-23T07:12:08;6.10;99.90
17236;DHT22;8734;59.272;17.780;2023-03-23T07:14:36;6.20;99.90
17236;DHT22;8734;59.272;17.780;2023-03-23T07:17:04;6.20;99.90
17236;DHT22;8734;59.272;17.780;2023-03-23T07:19:32;6.20;99.90
17236;DHT22;8734;59.272;17.780;2023-03-23T07:22:01;6.30;99.90
17236;DHT22;8734;59.272;17.780;2023-03-23T07:24:28;6.30;99.90
17236;DHT22;8734;59.272;17.780;2023-03-23T07:26:56;6.40;99.90
17236;DHT22;8734;59.272;17.780;2023-03-23T07:29:23;6.40;99.90
17236;DHT22;8734;59.272;17.780;2023-03-23T07:31:50;6.40;99.90
17236;DHT22;8734;59.272;17.780;2023-03-23T07:34:18;6.50;99.90
17236;DHT22;8734;59.272;17.780;2023-03-23T07:36:47;6.50;99.90
17236;DHT22;8734;59.272;17.780;2023-03-23T07:39:15;6.60;99.90
17236;DHT22;8734;59.272;17.780;2023-03-23T07:41:42;6.60;99.90
17236;DHT22;8734;59.272;17.780;2023-03-23T07:44:09;6.70;99.90
17236;DHT22;8734;59.272;17.780;2023-03-23T07:46:37;6.80;99.90
17236;DHT22;8734;59.272;17.780;2023-03-23T07:49:04;6.90;99.90
17236;DHT22;8734;59.272;17.780;2023-03-23T07:51:32;7.00;99.90
17236;DHT22;8734;59.272;17.780;2023-03-23T07:54:01;7.20;99.90
17236;DHT22;8734;59.272;17.780;2023-03-23T07:56:30;7.40;99.90
17236;DHT22;8734;59.272;17.780;2023-03-23T07:58:57;7.60;99.90
17236;DHT22;8734;59.272;17.780;2023-03-23T08:01:25;8.00;99.90
17236;DHT22;8734;59.272;17.780;2023-03-23T08:03:52;8.30;99.90
17236;DHT22;8734;59.272;17.780;2023-03-23T08:06:20;8.70;99.90
17236;DHT22;8734;59.272;17.780;2023-03-23T08:08:49;8.90;99.90
17236;DHT22;8734;59.272;17.780;2023-03-23T08:11:17;9.10;99.90
17236;DHT22;8734;59.272;17.780;2023-03-23T08:13:45;9.40;99.90
17236;DHT22;8734;59.272;17.780;2023-03-23T08:16:13;9.30;99.90
17236;DHT22;8734;59.272;17.780;2023-03-23T08:18:40;9.50;99.90
17236;DHT22;8734;59.272;17.780;2023-03-23T08:21:08;9.60;99.90
17236;DHT22;8734;59.272;17.780;2023-03-23T08:23:36;10.00;99.90
17236;DHT22;8734;59.272;17.780;2023-03-23T08:26:04;10.20;99.90
17236;DHT22;8734;59.272;17.780;2023-03-23T08:28:34;10.50;99.90
17236;DHT22;8734;59.272;17.780;2023-03-23T08:31:06;10.90;99.90
17236;DHT22;8734;59.272;17.780;2023-03-23T08:33:34;11.30;99.90
17236;DHT22;8734;59.272;17.780;2023-03-23T08:36:01;11.60;99.90
17236;DHT22;8734;59.272;17.780;2023-03-23T08:38:29;12.10;99.90
17236;DHT22;8734;59.272;17.780;2023-03-23T08:40:57;12.30;99.90
17236;DHT22;8734;59.272;17.780;2023-03-23T08:43:24;12.60;99.90
17236;DHT22;8734;59.272;17.780;2023-03-23T08:45:54;12.70;99.90
17236;DHT22;8734;59.272;17.780;2023-03-23T08:48:22;13.00;99.90
17236;DHT22;8734;59.272;17.780;2023-03-23T08:50:50;13.50;99.90
17236;DHT22;8734;59.272;17.780;2023-03-23T08:53:18;13.70;99.90
17236;DHT22;8734;59.272;17.780;2023-03-23T08:55:46;14.10;99.90
17236;DHT22;8734;59.272;17.780;2023-03-23T08:58:13;14.30;99.90
17236;DHT22;8734;59.272;17.780;2023-03-23T09:00:41;14.50;99.90
17236;DHT22;8734;59.272;17.780;2023-03-23T09:03:10;14.80;99.90
17236;DHT22;8734;59.272;17.780;2023-03-23T09:05:37;15.20;99.90
17236;DHT22;8734;59.272;17.780;2023-03-23T09:08:08;15.30;99.90
17236;DHT22;8734;59.272;17.780;2023-03-23T09:10:35;15.10;99.90
17236;DHT22;8734;59.272;17.780;2023-03-23T09:13:03;14.80;99.90
17236;DHT22;8734;59.272;17.780;2023-03-23T09:15:30;15.10;99.90
17236;DHT22;8734;59.272;17.780;2023-03-23T09:17:57;15.60;99.90
17236;DHT22;8734;59.272;17.780;2023-03-23T09:20:28;15.30;99.90
17236;DHT22;8734;59.272;17.780;2023-03-23T09:22:56;15.50;99.90
17236;DHT22;8734;59.272;17.780;2023-03-23T09:25:26;15.30;99.90
17236;DHT22;8734;59.272;17.780;2023-03-23T09:27:54;15.60;99.90
17236;DHT22;8734;59.272;17.780;2023-03-23T09:30:23;16.40;99.90
17236;DHT22;8734;59.272;17.780;2023-03-23T09:32:52;15.80;99.90
17236;DHT22;8734;59.272;17.780;2023-03-23T09:35:20;15.40;99.90
17236;DHT22;8734;59.272;17.780;2023-03-23T09:37:51;15.20;99.90
17236;DHT22;8734;59.272;17.780;2023-03-23T09:40:21;15.10;99.90
17236;DHT22;8734;59.272;17.780;2023-03-23T09:43:13;15.00;99.90
17236;DHT22;8734;59.272;17.780;2023-03-23T09:45:49;15.90;99.90
17236;DHT22;8734;59.272;17.780;2023-03-23T09:48:31;16.10;99.90
17236;DHT22;8734;59.272;17.780;2023-03-23T09:51:03;16.20;99.90
17236;DHT22;8734;59.272;17.780;2023-03-23T09:53:37;16.80;99.90
17236;DHT22;8734;59.272;17.780;2023-03-23T09:56:10;17.10;99.90
17236;DHT22;8734;59.272;17.780;2023-03-23T09:58:43;17.30;99.90
17236;DHT22;8734;59.272;17.780;2023-03-23T10:01:16;17.70;99.90
17236;DHT22;8734;59.272;17.780;2023-03-23T10:03:45;18.10;99.90
17236;DHT22;8734;59.272;17.780;2023-03-23T10:06:15;17.40;99.90
17236;DHT22;8734;59.272;17.780;2023-03-23T10:08:47;17.70;99.90
17236;DHT22;8734;59.272;17.780;2023-03-23T10:11:21;18.30;99.90
17236;DHT22;8734;59.272;17.780;2023-03-23T10:14:06;19.10;99.90
17236;DHT22;8734;59.272;17.780;2023-03-23T10:16:38;19.10;99.90
17236;DHT22;8734;59.272;17.780;2023-03-23T10:19:11;20.00;99.90
17236;DHT22;8734;59.272;17.780;2023-03-23T10:21:45;19.00;99.90
17236;DHT22;8734;59.272;17.780;2023-03-23T10:24:19;18.20;99.90
17236;DHT22;8734;59.272;17.780;2023-03-23T10:26:55;18.50;99.90
17236;DHT22;8734;59.272;17.780;2023-03-23T10:29:29;18.10;99.90
17236;DHT22;8734;59.272;17.780;2023-03-23T10:32:00;18.70;99.90
17236;DHT22;8734;59.272;17.780;2023-03-23T10:34:32;17.80;99.90
17236;DHT22;8734;59.272;17.780;2023-03-23T10:37:05;18.50;99.90
17236;DHT22;8734;59.272;17.780;2023-03-23T10:39:44;18.70;99.90
17236;DHT22;8734;59.272;17.780;2023-03-23T10:42:22;20.30;99.90
17236;DHT22;8734;59.272;17.780;2023-03-23T10:44:51;21.10;99.90
17236;DHT22;8734;59.272;17.780;2023-03-23T10:47:18;21.10;99.90
17236;DHT22;8734;59.272;17.780;2023-03-23T10:49:49;21.00;99.90
17236;DHT22;8734;59.272;17.780;2023-03-23T10:52:27;21.00;99.40
17236;DHT22;8734;59.272;17.780;2023-03-23T10:55:01;20.90;98.30
17236;DHT22;8734;59.272;17.780;2023-03-23T10:57:31;21.30;99.10
17236;DHT22;8734;59.272;17.780;2023-03-23T11:00:02;20.10;98.10
17236;DHT22;8734;59.272;17.780;2023-03-23T11:02:37;18.40;99.40
17236;DHT22;8734;59.272;17.780;2023-03-23T11:05:15;16.30;99.90
17236;DHT22;8734;59.272;17.780;2023-03-23T11:07:49;15.30;99.90
17236;DHT22;8734;59.272;17.780;2023-03-23T11:10:22;14.80;99.90
17236;DHT22;8734;59.272;17.780;2023-03-23T11:12:50;14.30;99.90
17236;DHT22;8734;59.272;17.780;2023-03-23T11:15:27;14.00;99.90
17236;DHT22;8734;59.272;17.780;2023-03-23T11:17:56;13.40;99.90
17236;DHT22;8734;59.272;17.780;2023-03-23T11:20:25;13.20;99.90
17236;DHT22;8734;59.272;17.780;2023-03-23T11:22:54;13.30;99.90
17236;DHT22;8734;59.272;17.780;2023-03-23T11:25:24;13.30;99.90
17236;DHT22;8734;59.272;17.780;2023-03-23T11:27:53;13.00;99.90
17236;DHT22;8734;59.272;17.780;2023-03-23T11:30:24;12.90;99.90
17236;DHT22;8734;59.272;17.780;2023-03-23T11:32:54;12.80;99.90
17236;DHT22;8734;59.272;17.780;2023-03-23T11:35:25;12.80;99.90
17236;DHT22;8734;59.272;17.780;2023-03-23T11:37:54;13.00;99.90
17236;DHT22;8734;59.272;17.780;2023-03-23T11:40:26;13.00;99.90
17236;DHT22;8734;59.272;17.780;2023-03-23T11:42:59;12.80;99.90
17236;DHT22;8734;59.272;17.780;2023-03-23T11:45:32;12.60;99.90
17236;DHT22;8734;59.272;17.780;2023-03-23T11:48:15;12.70;99.90
17236;DHT22;8734;59.272;17.780;2023-03-23T11:50:50;12.90;99.90
17236;DHT22;8734;59.272;17.780;2023-03-23T11:53:25;13.10;99.90
17236;DHT22;8734;59.272;17.780;2023-03-23T11:56:12;13.20;99.90
17236;DHT22;8734;59.272;17.780;2023-03-23T11:58:40;13.30;99.90
17236;DHT22;8734;59.272;17.780;2023-03-23T12:01:15;13.30;99.90
17236;DHT22;8734;59.272;17.780;2023-03-23T12:03:58;13.10;99.90
17236;DHT22;8734;59.272;17.780;2023-03-23T12:06:34;13.10;99.90
17236;DHT22;8734;59.272;17.780;2023-03-23T12:09:10;12.90;99.90
17236;DHT22;8734;59.272;17.780;2023-03-23T12:11:51;12.90;99.90
17236;DHT22;8734;59.272;17.780;2023-03-23T12:14:23;13.00;99.90
17236;DHT22;8734;59.272;17.780;2023-03-23T12:17:01;13.00;99.90
17236;DHT22;8734;59.272;17.780;2023-03-23T12:19:34;12.90;99.90
17236;DHT22;8734;59.272;17.780;2023-03-23T12:22:09;12.90;99.90
17236;DHT22;8734;59.272;17.780;2023-03-23T12:25:01;12.80;99.90
17236;DHT22;8734;59.272;17.780;2023-03-23T12:27:35;12.90;99.90
17236;DHT22;8734;59.272;17.780;2023-03-23T12:30:15;13.00;99.90
17236;DHT22;8734;59.272;17.780;2023-03-23T12:33:02;13.10;99.90
17236;DHT22;8734;59.272;17.780;2023-03-23T12:35:38;13.30;99.90
17236;DHT22;8734;59.272;17.780;2023-03-23T12:38:23;13.40;99.90
17236;DHT22;8734;59.272;17.780;2023-03-23T12:41:12;13.40;99.90
17236;DHT22;8734;59.272;17.780;2023-03-23T12:43:48;13.30;99.90
17236;DHT22;8734;59.272;17.780;2023-03-23T12:49:22;13.30;99.90
17236;DHT22;8734;59.272;17.780;2023-03-23T12:51:57;13.50;99.90
17236;DHT22;8734;59.272;17.780;2023-03-23T12:54:29;13.60;99.90
17236;DHT22;8734;59.272;17.780;2023-03-23T12:57:01;13.70;99.90
17236;DHT22;8734;59.272;17.780;2023-03-23T12:59:38;13.90;99.90
17236;DHT22;8734;59.272;17.780;2023-03-23T13:02:15;13.90;99.90
17236;DHT22;8734;59.272;17.780;2023-03-23T13:04:46;13.90;99.90
17236;DHT22;8734;59.272;17.780;2023-03-23T13:07:20;13.90;99.90
17236;DHT22;8734;59.272;17.780;2023-03-23T13:09:55;13.80;99.90
17236;DHT22;8734;59.272;17.780;2023-03-23T13:12:26;13.80;99.90
17236;DHT22;8734;59.272;17.780;2023-03-23T13:15:04;13.90;99.90
17236;DHT22;8734;59.272;17.780;2023-03-23T13:17:40;13.80;99.90
17236;DHT22;8734;59.272;17.780;2023-03-23T13:20:40;13.80;99.90
17236;DHT22;8734;59.272;17.780;2023-03-23T13:23:14;13.80;99.90
17236;DHT22;8734;59.272;17.780;2023-03-23T13:25:54;13.70;99.90
17236;DHT22;8734;59.272;17.780;2023-03-23T13:28:24;13.70;99.90
17236;DHT22;8734;59.272;17.780;2023-03-23T13:31:01;13.70;99.90
17236;DHT22;8734;59.272;17.780;2023-03-23T13:33:31;13.60;99.90
17236;DHT22;8734;59.272;17.780;2023-03-23T13:36:05;13.50;99.90
17236;DHT22;8734;59.272;17.780;2023-03-23T13:38:35;13.30;99.90
17236;DHT22;8734;59.272;17.780;2023-03-23T13:41:12;13.30;99.90
17236;DHT22;8734;59.272;17.780;2023-03-23T13:43:41;13.30;99.90
17236;DHT22;8734;59.272;17.780;2023-03-23T13:46:24;13.20;99.90
17236;DHT22;8734;59.272;17.780;2023-03-23T13:49:13;13.20;99.90
17236;DHT22;8734;59.272;17.780;2023-03-23T13:52:06;12.70;99.90
17236;DHT22;8734;59.272;17.780;2023-03-23T13:54:40;12.40;99.90
17236;DHT22;8734;59.272;17.780;2023-03-23T13:57:32;12.30;99.90
17236;DHT22;8734;59.272;17.780;2023-03-23T14:00:24;12.30;99.90
17236;DHT22;8734;59.272;17.780;2023-03-23T14:02:59;12.30;99.90
17236;DHT22;8734;59.272;17.780;2023-03-23T14:05:34;12.40;99.90
17236;DHT22;8734;59.272;17.780;2023-03-23T14:08:11;12.30;99.90
17236;DHT22;8734;59.272;17.780;2023-03-23T14:10:41;12.40;99.90
17236;DHT22;8734;59.272;17.780;2023-03-23T14:13:18;12.50;99.90
17236;DHT22;8734;59.272;17.780;2023-03-23T14:15:56;12.50;99.90
17236;DHT22;8734;59.272;17.780;2023-03-23T14:18:32;12.50;99.90
17236;DHT22;8734;59.272;17.780;2023-03-23T14:21:02;12.40;99.90
17236;DHT22;8734;59.272;17.780;2023-03-23T14:23:31;12.20;99.90
17236;DHT22;8734;59.272;17.780;2023-03-23T14:26:00;12.20;99.90
17236;DHT22;8734;59.272;17.780;2023-03-23T14:28:37;12.30;99.90
17236;DHT22;8734;59.272;17.780;2023-03-23T14:31:15;12.20;99.90
17236;DHT22;8734;59.272;17.780;2023-03-23T14:33:45;12.30;99.90
17236;DHT22;8734;59.272;17.780;2023-03-23T14:36:13;12.20;99.90
17236;DHT22;8734;59.272;17.780;2023-03-23T14:38:41;12.20;99.90
17236;DHT22;8734;59.272;17.780;2023-03-23T14:41:11;12.20;99.90
17236;DHT22;8734;59.272;17.780;2023-03-23T14:43:38;12.10;99.90
17236;DHT22;8734;59.272;17.780;2023-03-23T14:46:08;12.10;99.90
17236;DHT22;8734;59.272;17.780;2023-03-23T14:48:38;12.20;99.90
17236;DHT22;8734;59.272;17.780;2023-03-23T14:51:17;13.90;99.90
17236;DHT22;8734;59.272;17.780;2023-03-23T14:53:44;16.70;99.90
17236;DHT22;8734;59.272;17.780;2023-03-23T14:56:13;18.40;99.90
17236;DHT22;8734;59.272;17.780;2023-03-23T14:58:44;19.20;99.90
17236;DHT22;8734;59.272;17.780;2023-03-23T15:01:17;19.40;99.90
17236;DHT22;8734;59.272;17.780;2023-03-23T15:03:52;19.90;99.90
17236;DHT22;8734;59.272;17.780;2023-03-23T15:06:23;19.90;99.90
17236;DHT22;8734;59.272;17.780;2023-03-23T15:08:55;20.30;99.90
17236;DHT22;8734;59.272;17.780;2023-03-23T15:11:27;19.40;99.90
17236;DHT22;8734;59.272;17.780;2023-03-23T15:13:57;20.10;99.90
17236;DHT22;8734;59.272;17.780;2023-03-23T15:16:31;20.40;99.90
17236;DHT22;8734;59.272;17.780;2023-03-23T15:19:00;20.30;99.90
17236;DHT22;8734;59.272;17.780;2023-03-23T15:21:31;18.90;99.90
17236;DHT22;8734;59.272;17.780;2023-03-23T15:24:00;19.40;99.90
17236;DHT22;8734;59.272;17.780;2023-03-23T15:26:31;20.20;99.90
17236;DHT22;8734;59.272;17.780;2023-03-23T15:29:15;21.50;99.90
17236;DHT22;8734;59.272;17.780;2023-03-23T15:31:46;21.60;99.90
17236;DHT22;8734;59.272;17.780;2023-03-23T15:34:19;22.40;99.90
17236;DHT22;8734;59.272;17.780;2023-03-23T15:36:54;23.00;99.90
17236;DHT22;8734;59.272;17.780;2023-03-23T15:39:23;20.70;99.90
17236;DHT22;8734;59.272;17.780;2023-03-23T15:41:51;17.40;99.90
17236;DHT22;8734;59.272;17.780;2023-03-23T15:44:25;15.10;99.90
17236;DHT22;8734;59.272;17.780;2023-03-23T15:47:01;13.20;99.90
17236;DHT22;8734;59.272;17.780;2023-03-23T15:49:30;11.90;99.90
17236;DHT22;8734;59.272;17.780;2023-03-23T15:51:59;11.20;99.90
17236;DHT22;8734;59.272;17.780;2023-03-23T15:54:29;10.70;99.90
17236;DHT22;8734;59.272;17.780;2023-03-23T15:56:58;10.30;99.90
17236;DHT22;8734;59.272;17.780;2023-03-23T15:59:26;10.00;99.90
17236;DHT22;8734;59.272;17.780;2023-03-23T16:01:55;9.90;99.90
17236;DHT22;8734;59.272;17.780;2023-03-23T16:04:24;9.70;99.90
17236;DHT22;8734;59.272;17.780;2023-03-23T16:06:55;9.50;99.90
17236;DHT22;8734;59.272;17.780;2023-03-23T16:09:26;9.40;99.90
17236;DHT22;8734;59.272;17.780;2023-03-23T16:11:54;9.30;99.90
17236;DHT22;8734;59.272;17.780;2023-03-23T16:14:23;9.20;99.90
17236;DHT22;8734;59.272;17.780;2023-03-23T16:16:51;9.10;99.90
17236;DHT22;8734;59.272;17.780;2023-03-23T16:19:19;9.00;99.90